Time;durP1;ratioP1;P1;durP2;ratioP2;P2;SDS_P1;SDS_P2;PMS_P1;PMS_P2;Temp;Humidity;BMP_temperature;BMP_pressure;BME280_temperature;BME280_humidity;BME280_pressure;Samples;Min_cycle;Max_cycle;Signal;HPM_P1;HPM_P2
2021/10/20 00:01:40;;;;;;;5.45;3.90;;;;;;;12.65;83.44;98588.44;4136900;28;20804;-73
2021/10/20 00:03:41;;;;;;;4.55;3.35;;;;;;;12.62;83.50;98580.91;4136955;28;20496;-73
2021/10/20 00:05:41;;;;;;;4.15;3.45;;;;;;;12.66;82.54;98573.41;4137255;28;20112;-73
2021/10/20 00:07:41;;;;;;;4.68;3.53;;;;;;;12.72;81.96;98566.28;4136346;28;20065;-73
2021/10/20 00:09:42;;;;;;;5.53;3.30;;;;;;;12.82;80.62;98579.41;4141936;28;20068;-73
2021/10/20 00:11:43;;;;;;;4.97;3.53;;;;;;;12.96;80.11;98580.66;4142318;28;20725;-73
2021/10/20 00:13:43;;;;;;;4.82;3.47;;;;;;;13.05;78.84;98572.75;4138731;28;20505;-73
2021/10/20 00:15:43;;;;;;;3.90;3.05;;;;;;;13.11;78.59;98571.19;4140110;28;20364;-72
2021/10/20 00:17:44;;;;;;;4.15;2.97;;;;;;;13.18;77.89;98579.53;4139993;28;20069;-73
2021/10/20 00:19:47;;;;;;;5.15;3.47;;;;;;;13.17;78.03;98575.19;4142693;28;20417;-73
2021/10/20 00:21:48;;;;;;;3.92;3.38;;;;;;;13.14;77.90;98567.63;4142405;28;20331;-73
2021/10/20 00:23:48;;;;;;;5.40;3.38;;;;;;;13.18;76.38;98574.78;4141962;28;20371;-73
2021/10/20 00:25:48;;;;;;;6.18;3.08;;;;;;;13.17;77.37;98575.19;4139277;28;20500;-73
2021/10/20 00:27:49;;;;;;;4.47;3.28;;;;;;;13.09;77.35;98573.56;4139547;28;20057;-73
2021/10/20 00:29:49;;;;;;;4.50;3.30;;;;;;;12.96;78.40;98566.78;4139915;28;20138;-73
2021/10/20 00:31:49;;;;;;;3.53;2.80;;;;;;;12.80;79.95;98564.34;4142804;28;20068;-73
2021/10/20 00:33:50;;;;;;;4.82;3.42;;;;;;;12.62;81.31;98564.25;4138517;28;20046;-73
2021/10/20 00:35:50;;;;;;;3.53;2.90;;;;;;;12.43;82.15;98559.81;4139775;28;20045;-73
2021/10/20 00:37:51;;;;;;;4.65;3.28;;;;;;;12.29;81.83;98557.75;4139827;28;20124;-73
2021/10/20 00:39:51;;;;;;;3.92;3.15;;;;;;;12.18;83.19;98559.66;4139940;28;20046;-73
2021/10/20 00:41:52;;;;;;;3.78;3.00;;;;;;;12.06;83.36;98552.44;4144924;28;20050;-73
2021/10/20 00:43:53;;;;;;;4.60;3.10;;;;;;;11.95;83.89;98559.91;4137942;28;20044;-73
2021/10/20 00:45:53;;;;;;;4.00;3.22;;;;;;;11.90;84.10;98546.38;4139757;28;20322;-73
2021/10/20 00:47:54;;;;;;;4.60;3.28;;;;;;;11.77;84.27;98551.44;4139206;28;20133;-73
2021/10/20 00:49:56;;;;;;;4.70;3.30;;;;;;;11.80;83.63;98542.34;4139208;28;20310;-73
2021/10/20 00:51:56;;;;;;;4.53;3.17;;;;;;;11.82;82.46;98542.75;4138847;28;20456;-73
2021/10/20 00:53:57;;;;;;;4.70;2.63;;;;;;;11.83;82.73;98540.78;4138944;28;20417;-73
2021/10/20 00:55:58;;;;;;;4.18;3.33;;;;;;;11.80;83.88;98531.28;4138945;28;20038;-73
2021/10/20 00:57:59;;;;;;;4.00;3.30;;;;;;;11.80;82.50;98538.78;4139238;28;20136;-73
2021/10/20 01:00:03;;;;;;;3.85;3.20;;;;;;;11.85;82.09;98527.34;4142224;28;20364;-72
2021/10/20 01:02:05;;;;;;;4.70;3.40;;;;;;;11.82;82.40;98517.03;4139027;28;20316;-73
2021/10/20 01:04:05;;;;;;;4.07;3.28;;;;;;;11.79;82.79;98528.84;4137984;28;20233;-73
2021/10/20 01:06:05;;;;;;;4.60;3.63;;;;;;;11.75;82.79;98517.75;4139151;28;20030;-73
2021/10/20 01:08:06;;;;;;;5.75;3.08;;;;;;;11.71;83.58;98522.47;4139227;28;20048;-73
2021/10/20 01:10:08;;;;;;;5.80;3.70;;;;;;;11.71;83.03;98522.47;4140757;28;20416;-73
2021/10/20 01:12:09;;;;;;;;;;;;;;;11.68;82.91;98516.91;4138952;28;20042;-73
2021/10/20 01:14:09;;;;;;;3.70;2.92;;;;;;;11.71;81.51;98518.91;4139747;28;19913;-73
2021/10/20 01:16:10;;;;;;;4.15;3.15;;;;;;;11.77;81.03;98501.53;4139037;28;20469;-73
2021/10/20 01:18:12;;;;;;;4.47;3.22;;;;;;;11.76;81.45;98499.94;4138564;28;20034;-73
2021/10/20 01:20:12;;;;;;;4.95;3.65;;;;;;;11.78;80.25;98497.56;4139594;28;20030;-73
2021/10/20 01:22:13;;;;;;;3.47;3.10;;;;;;;11.82;80.50;98497.63;4142805;28;20120;-73
2021/10/20 01:24:13;;;;;;;6.15;3.40;;;;;;;11.86;79.94;98489.34;4138310;28;21204;-73
2021/10/20 01:26:17;;;;;;;4.03;3.28;;;;;;;11.87;79.11;98493.69;4137923;28;20033;-73
2021/10/20 01:28:17;;;;;;;4.78;3.30;;;;;;;11.91;79.11;98492.53;4138856;28;20045;-73
2021/10/20 01:30:18;;;;;;;6.60;3.60;;;;;;;11.94;78.67;98477.13;4138426;28;20382;-73
2021/10/20 01:32:19;;;;;;;5.25;3.60;;;;;;;11.91;80.29;98481.44;4136845;28;20410;-73
2021/10/20 01:34:20;;;;;;;4.85;3.67;;;;;;;11.80;80.82;98469.50;4138186;28;20033;-73
2021/10/20 01:36:20;;;;;;;4.07;3.47;;;;;;;11.85;79.66;98474.69;4138767;28;20069;-73
2021/10/20 01:38:21;;;;;;;3.88;2.90;;;;;;;11.93;77.92;98461.66;4138946;28;20125;-73
2021/10/20 01:40:21;;;;;;;4.70;3.15;;;;;;;11.99;77.96;98457.31;4138345;28;20042;-73
2021/10/20 01:42:22;;;;;;;4.53;3.42;;;;;;;12.03;77.69;98456.16;4139025;28;20124;-73
2021/10/20 01:44:22;;;;;;;7.45;3.90;;;;;;;11.98;80.43;98452.97;4137945;28;20053;-73
2021/10/20 01:46:23;;;;;;;4.43;3.58;;;;;;;11.95;78.07;98450.97;4138286;28;20438;-73
2021/10/20 01:48:23;;;;;;;4.57;3.50;;;;;;;11.96;77.45;98447.81;4138340;28;20045;-73
2021/10/20 01:50:23;;;;;;;4.65;3.42;;;;;;;12.04;77.27;98448.66;4138055;28;20393;-73
2021/10/20 01:52:24;;;;;;;4.47;3.53;;;;;;;12.02;77.03;98445.47;4138451;28;20034;-73
2021/10/20 01:54:24;;;;;;;5.15;3.30;;;;;;;11.97;76.93;98441.06;4137718;28;20359;-73
2021/10/20 01:56:24;;;;;;;5.93;3.17;;;;;;;11.95;76.89;98434.34;4138083;28;20064;-73
2021/10/20 01:58:25;;;;;;;3.95;3.30;;;;;;;12.04;75.20;98432.81;4143271;28;20469;-73
2021/10/20 02:00:25;;;;;;;5.18;3.13;;;;;;;12.13;75.25;98438.00;4140591;28;20044;-73
2021/10/20 02:02:25;;;;;;;4.50;3.45;;;;;;;12.15;75.79;98421.75;4139848;28;20042;-73
2021/10/20 02:04:26;;;;;;;4.28;3.50;;;;;;;12.11;77.19;98417.38;4137559;28;20444;-73
2021/10/20 02:06:26;;;;;;;5.22;3.42;;;;;;;12.00;76.93;98414.56;4138359;28;20038;-73
2021/10/20 02:08:27;;;;;;;4.93;3.47;;;;;;;11.94;76.57;98418.88;4138251;28;20164;-73
2021/10/20 02:10:27;;;;;;;4.00;3.05;;;;;;;11.89;76.79;98405.38;4138520;28;20034;-73
2021/10/20 02:12:27;;;;;;;3.55;2.97;;;;;;;11.82;76.86;98401.38;4140025;28;20038;-73
2021/10/20 02:14:28;;;;;;;5.05;3.95;;;;;;;11.77;76.92;98398.97;4137158;28;20042;-73
2021/10/20 02:16:28;;;;;;;6.55;4.10;;;;;;;11.71;78.74;98394.19;4140616;28;20041;-73
2021/10/20 02:18:30;;;;;;;4.13;3.33;;;;;;;11.59;78.00;98380.66;4138234;28;20046;-73
2021/10/20 02:20:30;;;;;;;4.28;3.45;;;;;;;11.51;78.56;98388.13;4137801;28;20084;-73
2021/10/20 02:22:30;;;;;;;4.53;3.20;;;;;;;11.38;79.44;98367.47;4141490;28;20089;-73
2021/10/20 02:24:31;;;;;;;4.82;3.45;;;;;;;11.37;77.22;98363.09;4137181;28;20053;-73
2021/10/20 02:26:32;;;;;;;4.85;3.60;;;;;;;11.35;78.88;98371.81;4137619;28;20180;-73
2021/10/20 02:28:32;;;;;;;6.00;3.63;;;;;;;11.38;76.78;98359.16;4137534;28;20038;-73
2021/10/20 02:30:32;;;;;;;4.75;3.67;;;;;;;11.42;77.53;98354.41;4137966;28;20545;-73
2021/10/20 02:32:33;;;;;;;4.20;3.47;;;;;;;11.42;77.04;98352.47;4137870;28;20048;-73
2021/10/20 02:34:33;;;;;;;5.00;3.72;;;;;;;11.42;77.05;98348.88;4136171;28;20050;-73
2021/10/20 02:36:34;;;;;;;4.18;3.35;;;;;;;11.42;75.28;98351.66;4137754;28;20241;-73
2021/10/20 02:38:35;;;;;;;4.43;3.13;;;;;;;11.56;73.31;98354.50;4137641;28;20038;-73
2021/10/20 02:40:35;;;;;;;4.55;3.20;;;;;;;11.65;73.01;98354.16;4137397;28;20096;-73
2021/10/20 02:42:35;;;;;;;4.25;3.35;;;;;;;11.80;72.41;98348.31;4137067;28;20053;-73
2021/10/20 02:44:36;;;;;;;3.65;2.67;;;;;;;11.96;71.42;98358.28;4139785;28;20520;-73
2021/10/20 02:46:36;;;;;;;3.88;2.88;;;;;;;11.96;71.02;98344.44;4140099;28;20378;-73
2021/10/20 02:48:37;;;;;;;4.80;3.40;;;;;;;11.97;71.33;98341.25;4137506;28;20045;-73
2021/10/20 02:50:37;;;;;;;3.80;2.92;;;;;;;11.89;72.01;98341.63;4140322;28;20541;-73
2021/10/20 02:52:38;;;;;;;3.97;3.15;;;;;;;11.77;72.48;98339.97;4137438;28;20037;-73
2021/10/20 02:54:38;;;;;;;5.00;2.70;;;;;;;11.69;73.01;98338.34;4136693;28;20115;-73
2021/10/20 02:56:38;;;;;;;4.90;3.20;;;;;;;11.59;74.09;98341.88;4137435;28;20112;-73
2021/10/20 02:58:39;;;;;;;4.55;3.53;;;;;;;11.56;73.56;98334.31;4137583;28;20088;-73
2021/10/20 03:00:39;;;;;;;5.20;3.83;;;;;;;11.51;74.52;98336.28;4137602;28;20050;-73
2021/10/20 03:02:41;;;;;;;4.05;3.28;;;;;;;11.52;74.82;98337.09;4137338;28;20034;-73
2021/10/20 03:04:41;;;;;;;5.13;3.70;;;;;;;11.49;74.79;98337.84;4136880;28;20106;-73
2021/10/20 03:06:41;;;;;;;5.82;4.05;;;;;;;11.51;74.71;98316.09;4136812;28;20697;-73
2021/10/20 03:08:42;;;;;;;5.80;3.45;;;;;;;11.56;74.17;98329.56;4137091;28;20399;-73
2021/10/20 03:10:43;;;;;;;4.68;3.25;;;;;;;11.52;74.84;98324.03;4137002;28;20297;-73
2021/10/20 03:12:43;;;;;;;5.07;3.47;;;;;;;11.53;74.36;98319.28;4137382;28;20060;-73
2021/10/20 03:14:44;;;;;;;7.53;3.80;;;;;;;11.45;75.16;98317.66;4136592;28;20046;-73
2021/10/20 03:16:44;;;;;;;5.38;3.80;;;;;;;11.44;74.70;98305.78;4136943;28;20045;-73
2021/10/20 03:18:45;;;;;;;3.58;3.00;;;;;;;11.37;75.45;98311.25;4137404;28;20477;-73
2021/10/20 03:20:45;;;;;;;5.93;3.80;;;;;;;11.36;75.24;98314.44;4138782;28;20064;-73
2021/10/20 03:22:45;;;;;;;4.72;3.55;;;;;;;11.33;75.44;98321.53;4136729;28;20042;-73
2021/10/20 03:24:46;;;;;;;4.47;3.28;;;;;;;11.25;75.98;98322.66;4136835;28;20045;-73
2021/10/20 03:26:46;;;;;;;4.72;3.53;;;;;;;11.20;75.97;98325.81;4136969;28;20038;-73
2021/10/20 03:28:46;;;;;;;4.55;3.53;;;;;;;11.18;76.07;98319.88;4137012;28;20129;-73
2021/10/20 03:30:47;;;;;;;7.22;4.20;;;;;;;11.12;76.31;98313.09;4136885;28;20470;-73
2021/10/20 03:32:49;;;;;;;5.20;3.40;;;;;;;11.05;77.00;98319.38;4137098;28;20124;-73
2021/10/20 03:34:49;;;;;;;7.45;3.60;;;;;;;10.96;77.25;98328.00;4136330;28;20072;-73
2021/10/20 03:36:49;;;;;;;6.50;3.70;;;;;;;10.88;77.89;98311.72;4139919;28;20030;-73
2021/10/20 03:38:50;;;;;;;6.72;3.50;;;;;;;10.79;77.64;98320.38;4137048;28;20124;-73
2021/10/20 03:40:50;;;;;;;5.57;3.80;;;;;;;10.68;77.74;98312.00;4136927;28;20180;-73
2021/10/20 03:42:51;;;;;;;4.43;3.50;;;;;;;10.62;77.85;98316.28;4136339;28;20378;-73
2021/10/20 03:44:52;;;;;;;4.65;3.58;;;;;;;10.55;79.36;98301.59;4136914;28;20103;-73
2021/10/20 03:46:52;;;;;;;4.60;3.50;;;;;;;10.49;80.27;98303.91;4142168;28;20061;-73
2021/10/20 03:48:52;;;;;;;4.95;3.70;;;;;;;10.43;80.42;98297.16;4142018;28;20046;-73
2021/10/20 03:50:53;;;;;;;4.82;3.55;;;;;;;10.38;80.10;98311.31;4142301;28;20436;-73
2021/10/20 03:52:53;;;;;;;5.10;3.95;;;;;;;10.40;77.98;98309.75;4142422;28;20042;-73
2021/10/20 03:54:53;;;;;;;7.63;3.53;;;;;;;10.46;77.87;98312.97;4146944;28;20822;-73
2021/10/20 03:56:54;;;;;;;5.43;3.95;;;;;;;10.47;77.63;98300.72;4141763;28;20461;-73
2021/10/20 03:58:54;;;;;;;8.80;3.72;;;;;;;10.47;78.14;98311.78;4142366;28;20802;-73
2021/10/20 04:00:57;;;;;;;6.80;3.97;;;;;;;10.43;78.00;98304.66;4142065;28;20426;-73
2021/10/20 04:02:57;;;;;;;;;;;;;;;10.39;78.26;98307.38;4145781;28;20390;-73
2021/10/20 04:04:58;;;;;;;4.90;3.60;;;;;;;10.40;77.86;98308.94;4141696;28;20219;-73
2021/10/20 04:06:58;;;;;;;4.75;3.92;;;;;;;10.34;78.40;98307.69;4142014;28;20038;-73
2021/10/20 04:08:58;;;;;;;5.78;3.33;;;;;;;10.27;78.62;98310.41;4142032;28;20049;-73
2021/10/20 04:10:59;;;;;;;5.65;4.55;;;;;;;10.33;77.87;98301.38;4141329;28;20120;-73
2021/10/20 04:12:59;;;;;;;9.40;4.45;;;;;;;10.31;79.04;98303.72;4142449;28;20572;-72
2021/10/20 04:14:59;;;;;;;9.25;5.03;;;;;;;10.33;78.45;98314.41;4139955;28;20050;-73
2021/10/20 04:17:00;;;;;;;6.38;4.43;;;;;;;10.37;78.29;98313.28;4142060;28;20396;-73
2021/10/20 04:19:01;;;;;;;6.93;4.68;;;;;;;10.43;78.63;98308.22;4142549;28;20046;-73
2021/10/20 04:21:02;;;;;;;6.63;4.63;;;;;;;10.50;78.33;98296.38;4141736;28;20494;-73
2021/10/20 04:23:02;;;;;;;5.15;4.20;;;;;;;10.61;78.17;98300.84;4142241;28;20038;-73
2021/10/20 04:25:04;;;;;;;6.38;4.60;;;;;;;10.65;77.65;98296.13;4141170;28;20488;-73
2021/10/20 04:27:05;;;;;;;5.82;4.50;;;;;;;10.69;78.22;98294.22;4141201;28;20500;-73
2021/10/20 04:29:05;;;;;;;8.32;4.82;;;;;;;10.67;78.05;98298.50;4142149;28;20045;-73
2021/10/20 04:31:05;;;;;;;7.22;4.82;;;;;;;10.69;78.18;98302.50;4142127;28;20092;-73
2021/10/20 04:33:06;;;;;;;6.35;4.45;;;;;;;10.63;79.17;98306.00;4141338;28;20304;-73
2021/10/20 04:35:08;;;;;;;7.72;4.72;;;;;;;10.54;79.70;98298.03;4141255;28;20045;-72
2021/10/20 04:37:08;;;;;;;4.78;4.05;;;;;;;10.49;80.47;98292.03;4141862;28;20042;-72
2021/10/20 04:39:09;;;;;;;7.93;4.00;;;;;;;10.44;81.99;98287.66;4142149;28;20363;-73
2021/10/20 04:41:09;;;;;;;7.72;4.40;;;;;;;10.46;81.30;98287.28;4140880;28;20038;-73
2021/10/20 04:43:10;;;;;;;6.88;4.07;;;;;;;10.45;80.93;98277.41;4141368;28;20394;-73
2021/10/20 04:45:10;;;;;;;9.27;3.90;;;;;;;10.49;80.70;98276.25;4141085;28;20041;-73
2021/10/20 04:47:11;;;;;;;4.75;3.88;;;;;;;10.58;79.67;98275.91;4143321;28;20544;-73
2021/10/20 04:49:11;;;;;;;8.15;4.20;;;;;;;10.73;78.28;98288.69;4141540;28;20045;-73
2021/10/20 04:51:11;;;;;;;6.80;4.10;;;;;;;10.84;78.64;98272.97;4143196;28;20183;-73
2021/10/20 04:53:12;;;;;;;5.70;4.18;;;;;;;10.87;78.95;98280.50;4144242;28;20097;-73
2021/10/20 04:55:12;;;;;;;5.97;4.10;;;;;;;10.86;79.65;98267.03;4144612;28;20199;-73
2021/10/20 04:57:13;;;;;;;5.53;3.30;;;;;;;10.92;78.49;98265.47;4144843;28;20390;-73
2021/10/20 04:59:13;;;;;;;5.85;4.10;;;;;;;10.89;78.44;98263.50;4140950;28;20128;-73
2021/10/20 05:01:13;;;;;;;6.55;3.13;;;;;;;10.92;78.08;98271.03;4144600;28;20057;-73
2021/10/20 05:03:14;;;;;;;6.90;3.50;;;;;;;10.95;77.63;98270.28;4141606;28;20042;-73
2021/10/20 05:05:14;;;;;;;5.10;2.85;;;;;;;11.03;76.44;98265.56;4144321;28;20037;-72
2021/10/20 05:07:15;;;;;;;5.78;3.20;;;;;;;11.14;75.82;98274.72;4143769;28;20494;-73
2021/10/20 05:09:15;;;;;;;3.92;3.40;;;;;;;11.18;75.24;98270.81;4141800;28;20057;-73
2021/10/20 05:11:15;;;;;;;3.92;3.28;;;;;;;11.25;74.59;98264.50;4144443;28;20422;-73
2021/10/20 05:13:16;;;;;;;4.78;2.85;;;;;;;11.36;73.25;98267.34;4141263;28;20046;-73
2021/10/20 05:15:16;;;;;;;5.63;3.15;;;;;;;11.56;72.29;98265.84;4144579;28;20041;-73
2021/10/20 05:17:16;;;;;;;5.32;3.55;;;;;;;11.59;73.16;98269.81;4143781;28;20044;-73
2021/10/20 05:19:17;;;;;;;4.43;3.10;;;;;;;11.54;73.53;98277.31;4143106;28;20115;-73
2021/10/20 05:21:17;;;;;;;6.10;3.80;;;;;;;11.47;73.13;98266.19;4143986;28;20176;-73
2021/10/20 05:23:18;;;;;;;4.82;3.20;;;;;;;11.41;73.90;98262.22;4141683;28;20089;-73
2021/10/20 05:25:19;;;;;;;4.55;3.22;;;;;;;11.40;73.88;98271.69;4143796;28;20041;-73
2021/10/20 05:27:20;;;;;;;4.30;3.17;;;;;;;11.31;75.78;98268.50;4141644;28;20046;-72
2021/10/20 05:29:21;;;;;;;5.53;3.40;;;;;;;11.25;75.56;98262.56;4142847;28;20453;-73
2021/10/20 05:31:22;;;;;;;6.50;3.80;;;;;;;11.21;76.75;98258.16;4143614;28;20042;-73
2021/10/20 05:33:22;;;;;;;5.22;3.30;;;;;;;11.15;74.47;98262.47;4141770;28;20433;-73
2021/10/20 05:35:22;;;;;;;4.70;3.47;;;;;;;11.17;73.93;98252.63;4143413;28;20906;-73
2021/10/20 05:37:23;;;;;;;4.38;2.97;;;;;;;11.18;73.90;98245.09;4141802;28;20387;-73
2021/10/20 05:39:24;;;;;;;3.95;2.92;;;;;;;11.20;73.86;98249.06;4140821;28;20037;-73
2021/10/20 05:41:25;;;;;;;3.38;2.80;;;;;;;11.18;73.43;98250.63;4144106;28;20603;-73
2021/10/20 05:43:25;;;;;;;4.10;2.90;;;;;;;11.22;72.18;98249.47;4141900;28;20054;-73
2021/10/20 05:45:25;;;;;;;4.78;3.17;;;;;;;11.25;73.47;98247.88;4142993;28;20076;-73
2021/10/20 05:47:26;;;;;;;5.85;3.28;;;;;;;11.23;75.08;98244.72;4142051;28;20689;-73
2021/10/20 05:49:26;;;;;;;5.60;3.28;;;;;;;11.21;74.84;98238.78;4144028;28;20133;-73
2021/10/20 05:51:27;;;;;;;5.78;3.33;;;;;;;11.14;74.14;98233.19;4141206;28;20046;-73
2021/10/20 05:53:27;;;;;;;6.20;3.20;;;;;;;11.14;73.42;98241.50;4142703;28;20339;-73
2021/10/20 05:55:27;;;;;;;3.88;2.88;;;;;;;11.12;72.72;98241.91;4141262;28;20045;-73
2021/10/20 05:57:29;;;;;;;4.57;3.28;;;;;;;11.12;73.23;98241.09;4143677;28;20046;-73
2021/10/20 05:59:29;;;;;;;4.07;2.83;;;;;;;11.13;73.63;98245.47;4140381;28;20056;-73
2021/10/20 06:01:31;;;;;;;4.15;2.90;;;;;;;11.13;72.85;98251.78;4142023;28;20128;-73
2021/10/20 06:03:31;;;;;;;3.88;2.92;;;;;;;11.12;72.57;98239.13;4143082;28;20042;-73
2021/10/20 06:05:32;;;;;;;6.40;3.40;;;;;;;11.16;72.35;98248.22;4140532;28;20063;-73
2021/10/20 06:07:32;;;;;;;4.85;3.40;;;;;;;11.15;72.79;98243.09;4143048;28;20080;-73
2021/10/20 06:09:35;;;;;;;4.10;2.97;;;;;;;11.08;73.76;98237.50;4142600;28;20045;-73
2021/10/20 06:11:36;;;;;;;4.63;3.20;;;;;;;11.00;74.11;98244.19;4140031;28;20042;-73
2021/10/20 06:13:36;;;;;;;7.25;3.97;;;;;;;10.94;74.47;98232.69;4139925;28;20048;-73
2021/10/20 06:15:37;;;;;;;4.13;3.40;;;;;;;10.87;74.05;98241.75;4141480;28;20074;-73
2021/10/20 06:17:38;;;;;;;7.63;3.65;;;;;;;10.83;75.45;98243.69;4142948;28;20095;-73
2021/10/20 06:19:38;;;;;;;5.03;3.78;;;;;;;10.75;75.74;98235.72;4138923;28;20038;-73
2021/10/20 06:21:39;;;;;;;6.25;3.67;;;;;;;10.76;74.73;98217.94;4142485;28;20532;-73
2021/10/20 06:23:39;;;;;;;4.18;3.45;;;;;;;10.77;74.76;98225.88;4141839;28;20038;-73
2021/10/20 06:25:39;;;;;;;4.47;3.40;;;;;;;10.74;76.04;98220.31;4140287;28;20046;-73
2021/10/20 06:27:40;;;;;;;4.03;3.20;;;;;;;10.72;77.40;98212.38;4139136;28;20048;-73
2021/10/20 06:29:41;;;;;;;7.28;3.60;;;;;;;10.77;75.88;98205.72;4137025;28;20054;-73
2021/10/20 06:31:41;;;;;;;3.53;2.75;;;;;;;10.81;75.16;98212.84;4136942;28;20294;-73
2021/10/20 06:33:42;;;;;;;6.28;3.50;;;;;;;10.80;76.86;98211.25;4136088;28;20510;-73
2021/10/20 06:35:43;;;;;;;6.20;3.28;;;;;;;10.86;74.29;98212.50;4136769;28;20034;-73
2021/10/20 06:37:50;;;;;;;5.65;3.03;;;;;;;10.87;75.03;98210.50;4136478;28;20422;-73
2021/10/20 06:39:51;;;;;;;4.38;3.13;;;;;;;10.88;74.72;98212.09;4136751;28;20545;-73
2021/10/20 06:41:51;;;;;;;4.45;3.08;;;;;;;10.87;75.78;98218.81;4136698;28;20418;-73
2021/10/20 06:43:52;;;;;;;3.97;2.83;;;;;;;10.90;74.94;98207.75;4136106;28;20050;-73
2021/10/20 06:45:53;;;;;;;5.38;3.13;;;;;;;11.07;73.37;98205.47;4137252;28;20034;-73
2021/10/20 06:47:53;;;;;;;5.80;3.47;;;;;;;11.05;76.49;98194.78;4136952;28;20038;-73
2021/10/20 06:49:53;;;;;;;5.05;3.30;;;;;;;11.20;73.63;98190.91;4136462;28;20932;-73
2021/10/20 06:51:54;;;;;;;6.40;3.28;;;;;;;11.32;73.65;98197.28;4136337;28;20077;-73
2021/10/20 06:53:54;;;;;;;5.32;3.22;;;;;;;11.23;75.47;98186.56;4135840;28;20406;-73
2021/10/20 06:55:54;;;;;;;5.80;3.17;;;;;;;11.31;73.94;98192.91;4136711;28;20069;-73
2021/10/20 06:57:55;;;;;;;4.43;3.30;;;;;;;11.32;73.70;98183.44;4136954;28;20124;-73
2021/10/20 06:59:55;;;;;;;5.68;3.42;;;;;;;11.33;73.61;98183.03;4136492;28;20104;-73
2021/10/20 07:01:56;;;;;;;4.90;3.53;;;;;;;11.36;73.71;98179.50;4136741;28;20048;-73
2021/10/20 07:03:56;;;;;;;4.40;3.20;;;;;;;11.36;73.78;98178.72;4135805;28;20038;-73
2021/10/20 07:05:56;;;;;;;5.35;3.40;;;;;;;11.37;75.26;98172.78;4136374;28;20133;-73
2021/10/20 07:07:57;;;;;;;4.07;3.10;;;;;;;11.41;74.03;98181.09;4136717;28;20038;-73
2021/10/20 07:09:57;;;;;;;4.55;3.80;;;;;;;11.45;73.61;98179.94;4136642;28;20037;-73
2021/10/20 07:11:59;;;;;;;5.13;3.42;;;;;;;11.54;73.95;98176.78;4136855;28;20110;-73
2021/10/20 07:13:59;;;;;;;5.03;3.50;;;;;;;11.65;73.95;98185.13;4133626;28;20046;-73
2021/10/20 07:15:59;;;;;;;4.70;3.40;;;;;;;11.69;73.60;98183.94;4136456;28;20310;-73
2021/10/20 07:18:00;;;;;;;3.33;2.90;;;;;;;11.73;73.88;98179.19;4123412;28;20137;-73
2021/10/20 07:20:00;;;;;;;5.22;3.45;;;;;;;11.76;73.81;98178.44;4134733;28;20045;-73
2021/10/20 07:22:01;;;;;;;5.53;3.50;;;;;;;11.81;73.35;98172.50;4136306;28;20052;-73
2021/10/20 07:24:02;;;;;;;5.07;3.38;;;;;;;11.86;73.75;98167.78;4136315;28;20088;-73
2021/10/20 07:26:02;;;;;;;3.42;3.08;;;;;;;11.84;74.43;98159.84;4136387;28;20374;-73
2021/10/20 07:28:03;;;;;;;6.35;3.58;;;;;;;11.89;74.11;98172.53;4136777;28;20029;-73
2021/10/20 07:30:05;;;;;;;6.93;3.53;;;;;;;12.01;71.73;98159.09;4136634;28;20169;-73
2021/10/20 07:32:06;;;;;;;;;;;;;;;12.14;71.21;98167.00;4121406;28;20070;-73
2021/10/20 07:34:06;;;;;;;4.38;3.13;;;;;;;12.26;70.27;98167.41;4119517;28;19924;-73
2021/10/20 07:36:07;;;;;;;4.60;3.08;;;;;;;12.38;70.67;98166.19;4120585;28;20537;-73
2021/10/20 07:38:07;;;;;;;4.72;3.40;;;;;;;12.41;70.79;98150.72;4120616;28;20037;-73
2021/10/20 07:40:10;;;;;;;6.60;3.55;;;;;;;12.57;70.82;98153.88;4121888;28;20026;-73
2021/10/20 07:42:10;;;;;;;;;;;;;;;12.63;70.72;98158.63;4120897;28;20033;-73
2021/10/20 07:44:10;;;;;;;7.20;3.65;;;;;;;12.69;69.51;98147.13;4119541;28;20269;-73
2021/10/20 07:46:11;;;;;;;3.50;3.00;;;;;;;12.77;68.57;98152.28;4121098;28;20459;-73
2021/10/20 07:48:12;;;;;;;6.68;3.30;;;;;;;12.77;69.26;98145.94;4121199;28;20058;-73
2021/10/20 07:50:13;;;;;;;5.88;3.67;;;;;;;12.87;67.23;98145.88;4122412;28;20061;-73
2021/10/20 07:52:13;;;;;;;4.82;3.47;;;;;;;13.05;67.22;98150.59;4126611;28;20025;-73
2021/10/20 07:54:14;;;;;;;4.53;3.28;;;;;;;13.16;66.95;98145.81;4119629;28;20275;-73
2021/10/20 07:56:14;;;;;;;5.68;3.45;;;;;;;13.28;66.52;98144.59;4120313;28;20041;-73
2021/10/20 07:58:15;;;;;;;6.97;3.28;;;;;;;13.27;66.53;98143.78;4119118;28;20529;-73
2021/10/20 08:00:16;;;;;;;3.67;3.03;;;;;;;13.35;66.06;98150.91;4123099;28;20168;-72
2021/10/20 08:02:17;;;;;;;3.88;3.08;;;;;;;13.43;65.63;98152.44;4121698;28;20316;-73
2021/10/20 08:04:17;;;;;;;4.25;3.20;;;;;;;13.46;65.65;98150.84;4121053;28;20034;-73
2021/10/20 08:06:18;;;;;;;5.18;3.15;;;;;;;13.53;65.57;98155.56;4121289;28;20224;-73
2021/10/20 08:08:18;;;;;;;4.13;3.10;;;;;;;13.57;64.66;98142.44;4120299;28;20030;-73
2021/10/20 08:10:25;;;;;;;6.13;2.97;;;;;;;13.60;65.10;98149.97;4119943;28;20109;-73
2021/10/20 08:12:25;;;;;;;4.75;3.08;;;;;;;13.60;64.92;98149.97;4120451;28;20471;-73
2021/10/20 08:14:26;;;;;;;6.07;2.97;;;;;;;13.60;65.09;98141.63;4119368;28;20197;-73
2021/10/20 08:16:26;;;;;;;3.92;2.83;;;;;;;13.53;65.72;98144.44;4123050;28;20337;-73
2021/10/20 08:18:26;;;;;;;3.03;2.72;;;;;;;13.61;66.09;98151.56;4120117;28;20038;-73
2021/10/20 08:20:30;;;;;;;4.35;3.10;;;;;;;13.60;66.15;98142.44;4118380;28;20052;-73
2021/10/20 08:22:31;;;;;;;5.18;3.60;;;;;;;13.69;65.71;98142.75;4121933;28;20146;-73
2021/10/20 08:24:32;;;;;;;5.30;3.03;;;;;;;13.71;66.28;98140.34;4119818;28;20077;-73
2021/10/20 08:26:32;;;;;;;4.97;2.88;;;;;;;13.74;64.68;98120.09;4123606;28;20037;-73
2021/10/20 08:28:32;;;;;;;4.90;2.92;;;;;;;13.76;64.93;98128.81;4118907;28;20062;-73
2021/10/20 08:30:34;;;;;;;3.65;2.97;;;;;;;13.75;65.46;98113.34;4125786;28;20432;-73
2021/10/20 08:32:34;;;;;;;5.47;3.23;;;;;;;13.81;64.75;98115.66;4124414;28;21392;-73
2021/10/20 08:34:35;;;;;;;4.72;3.15;;;;;;;13.77;64.27;98129.59;4127675;28;20293;-73
2021/10/20 08:36:35;;;;;;;4.38;3.40;;;;;;;13.88;64.36;98127.53;4128386;28;20286;-73
2021/10/20 08:38:36;;;;;;;4.93;2.97;;;;;;;13.90;64.58;98135.47;4126116;28;20503;-73
2021/10/20 08:40:46;;;;;;;5.30;3.50;;;;;;;13.90;64.27;98127.94;4128002;28;20472;-73
2021/10/20 08:42:47;;;;;;;4.60;3.33;;;;;;;13.80;65.69;98130.78;4129136;28;20084;-73
2021/10/20 08:44:47;;;;;;;5.38;3.00;;;;;;;13.93;64.55;98131.88;4124239;28;20324;-73
2021/10/20 08:46:50;;;;;;;5.38;2.92;;;;;;;13.83;65.51;98127.19;4128311;28;20397;-73
2021/10/20 08:48:52;;;;;;;;;;;;;;;13.92;64.12;98106.06;4122384;28;20180;-73
2021/10/20 08:51:02;;;;;;;4.03;3.22;;;;;;;13.92;64.42;98092.16;4125878;28;20420;-73
2021/10/20 08:53:04;;;;;;;5.80;2.85;;;;;;;13.96;64.75;98101.25;4122808;28;20425;-73
2021/10/20 08:55:04;;;;;;;7.72;3.45;;;;;;;13.90;65.69;98096.53;4122511;28;20529;-73
2021/10/20 08:57:05;;;;;;;5.35;3.50;;;;;;;13.88;64.72;98110.06;4122742;28;20042;-73
2021/10/20 08:59:05;;;;;;;6.75;3.63;;;;;;;14.00;64.17;98121.50;4126129;28;20100;-73
2021/10/20 09:01:06;;;;;;;5.75;3.30;;;;;;;14.02;64.32;98127.44;4124987;28;20113;-73
2021/10/20 09:03:06;;;;;;;4.38;3.30;;;;;;;14.02;65.46;98118.31;4125187;28;20114;-73
2021/10/20 09:05:08;;;;;;;6.97;3.40;;;;;;;14.12;64.06;98119.41;4124964;28;20756;-73
2021/10/20 09:07:14;;;;;;;3.95;3.20;;;;;;;14.09;64.79;98123.81;4126326;28;20425;-73
2021/10/20 09:09:16;;;;;;;5.15;3.10;;;;;;;14.12;64.55;98131.31;4125370;28;20564;-73
2021/10/20 09:11:34;;;;;;;5.43;3.33;;;;;;;14.10;64.72;98132.94;4126337;28;20052;-73
2021/10/20 09:13:34;;;;;;;5.35;3.78;;;;;;;14.10;64.83;98117.03;4121366;28;20306;-73
2021/10/20 09:15:36;;;;;;;4.47;3.00;;;;;;;14.09;65.04;98118.25;4123802;28;20046;-73
2021/10/20 09:17:52;;;;;;;5.40;3.53;;;;;;;14.13;65.23;98112.63;4123156;28;20050;-73
2021/10/20 09:19:58;;;;;;;6.43;3.20;;;;;;;14.21;64.16;98106.59;4122189;28;20049;-73
2021/10/20 09:22:01;;;;;;;4.82;3.53;;;;;;;14.20;64.98;98081.97;4122100;28;20039;-73
2021/10/20 09:24:10;;;;;;;6.97;3.50;;;;;;;14.29;64.57;98102.56;4123108;28;20034;-73
2021/10/20 09:26:10;;;;;;;5.10;3.10;;;;;;;14.28;65.81;98094.63;4123071;28;20062;-73
2021/10/20 09:28:18;;;;;;;4.70;3.30;;;;;;;14.37;65.45;98085.78;4122496;28;20033;-73
2021/10/20 09:30:20;;;;;;;7.60;3.70;;;;;;;14.39;65.38;98084.16;4121866;28;20082;-73